createdAt,value
2023-02-01T00:01:58.609Z,3.75
2023-02-01T00:04:24.894Z,3.86
2023-02-01T00:06:51.180Z,3.78
2023-02-01T00:09:17.474Z,3.69
2023-02-01T00:11:43.756Z,3.80
2023-02-01T00:14:10.054Z,3.81
2023-02-01T00:16:36.319Z,3.82
2023-02-01T00:19:02.583Z,4.02
2023-02-01T00:21:28.849Z,4.08
2023-02-01T00:23:55.136Z,3.69
2023-02-01T00:26:21.434Z,3.96
2023-02-01T00:28:47.747Z,3.80
2023-02-01T00:31:14.122Z,3.90
2023-02-01T00:33:40.427Z,3.76
2023-02-01T00:36:06.700Z,3.94
2023-02-01T00:38:32.971Z,3.66
2023-02-01T00:40:59.274Z,3.90
2023-02-01T00:43:25.553Z,4.05
2023-02-01T00:45:51.859Z,3.70
2023-02-01T00:48:18.114Z,3.82
2023-02-01T00:50:44.410Z,3.94
2023-02-01T00:53:10.715Z,3.90
2023-02-01T00:55:37.017Z,3.84
2023-02-01T00:58:03.329Z,3.94
2023-02-01T01:00:29.717Z,3.87
2023-02-01T01:02:56.054Z,3.79
2023-02-01T01:05:22.321Z,3.98
2023-02-01T01:07:48.603Z,4.10
2023-02-01T01:10:14.884Z,3.79
2023-02-01T01:12:41.147Z,3.91
2023-02-01T01:15:07.416Z,3.87
2023-02-01T01:17:33.731Z,4.03
2023-02-01T01:20:00.168Z,3.90
2023-02-01T01:22:26.481Z,3.83
2023-02-01T01:24:52.769Z,3.81
2023-02-01T01:27:19.042Z,4.10
2023-02-01T01:29:45.321Z,3.81
2023-02-01T01:32:11.601Z,3.85
2023-02-01T01:34:37.864Z,3.92
2023-02-01T01:37:04.130Z,3.96
2023-02-01T01:39:30.421Z,3.84
2023-02-01T01:41:56.694Z,3.94
2023-02-01T01:44:22.977Z,4.12
2023-02-01T01:46:49.378Z,4.06
2023-02-01T01:49:15.711Z,3.82
2023-02-01T01:51:41.991Z,3.75
2023-02-01T01:54:08.258Z,4.12
2023-02-01T01:56:34.532Z,4.31
2023-02-01T01:59:00.799Z,3.82
2023-02-01T02:01:27.074Z,4.06
2023-02-01T02:03:53.450Z,3.98
2023-02-01T02:06:19.712Z,4.11
2023-02-01T02:08:45.982Z,4.04
2023-02-01T02:11:12.256Z,4.08
2023-02-01T02:13:38.584Z,3.92
2023-02-01T02:16:04.872Z,3.90
2023-02-01T02:18:31.167Z,3.79
2023-02-01T02:20:57.485Z,3.95
2023-02-01T02:23:23.792Z,3.87
2023-02-01T02:25:50.076Z,3.99
2023-02-01T02:28:16.340Z,3.82
2023-02-01T02:30:42.659Z,3.95
2023-02-01T02:33:08.979Z,3.85
2023-02-01T02:35:35.286Z,3.78
2023-02-01T02:38:01.563Z,3.96
2023-02-01T02:40:27.849Z,3.97
2023-02-01T02:42:54.129Z,3.96
2023-02-01T02:45:20.405Z,3.99
2023-02-01T02:47:46.689Z,3.84
2023-02-01T02:50:12.989Z,3.87
2023-02-01T02:52:39.269Z,3.96
2023-02-01T02:55:05.547Z,3.75
2023-02-01T02:57:31.815Z,3.97
2023-02-01T02:59:58.100Z,3.81
2023-02-01T03:02:24.432Z,3.99
2023-02-01T03:04:50.711Z,3.68
2023-02-01T03:07:17.008Z,3.69
2023-02-01T03:09:43.321Z,3.79
2023-02-01T03:12:09.627Z,3.67
2023-02-01T03:14:35.926Z,3.49
2023-02-01T03:17:02.191Z,3.64
2023-02-01T03:19:28.475Z,3.88
2023-02-01T03:24:19.955Z,3.78
2023-02-01T03:26:46.266Z,3.38
2023-02-01T03:29:12.582Z,3.47
2023-02-01T03:31:38.896Z,4.19
2023-02-01T03:34:05.261Z,4.01
2023-02-01T03:36:31.551Z,3.75
2023-02-01T03:38:57.823Z,3.65
2023-02-01T03:41:24.108Z,3.76
2023-02-01T03:43:50.411Z,3.81
2023-02-01T03:46:16.705Z,3.64
2023-02-01T03:48:42.966Z,3.87
2023-02-01T03:51:09.221Z,3.91
2023-02-01T03:53:35.516Z,3.88
2023-02-01T03:56:01.783Z,3.73
2023-02-01T03:58:28.058Z,3.62
2023-02-01T04:00:54.393Z,3.62
2023-02-01T04:03:20.687Z,3.57
2023-02-01T04:05:46.959Z,3.62
2023-02-01T04:08:13.292Z,3.85
2023-02-01T04:10:39.559Z,3.64
2023-02-01T04:13:05.932Z,3.63
2023-02-01T04:15:32.217Z,3.62
2023-02-01T04:17:58.491Z,3.59
2023-02-01T04:20:25.168Z,3.39
2023-02-01T04:22:51.633Z,3.70
2023-02-01T04:25:17.904Z,3.72
2023-02-01T04:27:44.204Z,3.89
2023-02-01T04:30:10.481Z,3.91
2023-02-01T04:32:36.745Z,4.06
2023-02-01T04:35:03.026Z,3.81
2023-02-01T04:37:29.283Z,3.47
2023-02-01T04:39:55.549Z,3.81
2023-02-01T04:42:21.790Z,4.04
2023-02-01T04:44:48.048Z,3.99
2023-02-01T04:47:14.301Z,4.00
2023-02-01T04:49:40.557Z,3.99
2023-02-01T04:52:06.799Z,3.99
2023-02-01T04:54:33.065Z,3.91
2023-02-01T04:56:59.317Z,3.88
2023-02-01T04:59:25.570Z,3.73
2023-02-01T05:01:51.814Z,4.14
2023-02-01T05:04:18.085Z,4.22
2023-02-01T05:06:44.368Z,4.00
2023-02-01T05:09:10.636Z,4.12
2023-02-01T05:11:36.889Z,4.00
2023-02-01T05:14:03.145Z,3.95
2023-02-01T05:16:29.453Z,3.96
2023-02-01T05:18:55.740Z,4.02
2023-02-01T05:21:22.014Z,3.79
2023-02-01T05:23:48.275Z,3.88
2023-02-01T05:26:14.584Z,3.56
2023-02-01T05:28:40.853Z,3.77
2023-02-01T05:31:07.201Z,4.53
2023-02-01T05:33:33.542Z,4.46
2023-02-01T05:35:59.785Z,4.16
2023-02-01T05:38:26.035Z,3.82
2023-02-01T05:40:52.273Z,3.84
2023-02-01T05:43:18.529Z,3.99
2023-02-01T05:45:44.777Z,3.88
2023-02-01T05:48:11.049Z,3.92
2023-02-01T05:50:37.295Z,4.01
2023-02-01T10:10:05.483Z,15.10
2023-02-01T10:12:31.752Z,13.08
2023-02-01T10:14:58.015Z,16.75
2023-02-01T10:17:24.285Z,15.29
2023-02-01T10:19:50.562Z,15.36
2023-02-01T10:22:16.830Z,14.94
2023-02-01T10:24:43.100Z,15.99
2023-02-01T10:27:09.359Z,16.42
2023-02-01T10:29:35.714Z,17.46
2023-02-01T10:32:02.018Z,17.42
2023-02-01T10:34:28.364Z,16.63
2023-02-01T10:36:54.624Z,16.27
2023-02-01T10:39:20.903Z,16.73
2023-02-01T10:41:47.180Z,16.34
2023-02-01T10:44:13.444Z,16.36
2023-02-01T10:46:42.343Z,14.72
2023-02-01T10:49:08.668Z,15.49
2023-02-01T10:51:34.944Z,16.53
2023-02-01T10:54:01.212Z,16.64
2023-02-01T10:56:27.481Z,16.75
2023-02-01T10:58:53.743Z,15.86
2023-02-01T11:01:20.028Z,15.69
2023-02-01T11:03:46.335Z,13.14
2023-02-01T11:06:12.600Z,11.28
2023-02-01T11:08:38.914Z,11.01
2023-02-01T11:11:05.180Z,9.41
2023-02-01T11:13:31.465Z,8.72
2023-02-01T11:15:57.760Z,8.46
2023-02-01T11:18:24.012Z,8.07
2023-02-01T11:20:50.322Z,8.00
2023-02-01T11:23:16.628Z,7.18
2023-02-01T11:25:43.074Z,7.50
2023-02-01T11:28:09.354Z,7.38
2023-02-01T11:30:35.789Z,6.56
2023-02-01T11:33:02.082Z,6.70
2023-02-01T11:35:28.343Z,6.79
2023-02-01T11:37:54.645Z,6.44
2023-02-01T11:40:21.078Z,7.16
2023-02-01T11:42:47.419Z,7.31
2023-02-01T11:45:13.667Z,8.06
2023-02-01T11:47:39.932Z,9.09
2023-02-01T11:50:06.176Z,8.83
2023-02-01T11:52:32.477Z,8.53
2023-02-01T11:54:58.746Z,8.43
2023-02-01T11:57:25.072Z,8.87
2023-02-01T11:59:56.860Z,8.45
2023-02-01T12:02:23.451Z,8.68
2023-02-01T12:04:49.772Z,8.77
2023-02-01T12:07:16.036Z,9.14
2023-02-01T12:09:42.313Z,9.81
2023-02-01T12:12:08.563Z,9.92
2023-02-01T12:14:34.843Z,9.75
2023-02-01T12:17:01.110Z,10.48
2023-02-01T12:19:27.391Z,10.77
2023-02-01T12:21:53.649Z,10.65
2023-02-01T12:24:19.933Z,11.94
2023-02-01T12:26:46.227Z,11.46
2023-02-01T12:29:12.523Z,10.80
2023-02-01T12:31:38.808Z,11.45
2023-02-01T12:34:05.101Z,10.48
2023-02-01T12:36:31.457Z,10.01
2023-02-01T12:38:57.759Z,9.97
2023-02-01T12:41:24.013Z,9.71
2023-02-01T12:43:50.279Z,10.04
2023-02-01T12:46:16.605Z,10.06
2023-02-01T12:48:43.737Z,10.61
2023-02-01T12:51:10.287Z,9.83
2023-02-01T12:53:36.536Z,9.63
2023-02-01T12:56:02.799Z,10.40
2023-02-01T12:58:29.055Z,9.86
2023-02-01T13:00:55.375Z,10.14
2023-02-01T13:03:21.646Z,10.46
2023-02-01T13:05:47.955Z,9.99
2023-02-01T13:08:14.216Z,10.17
2023-02-01T13:10:40.481Z,9.69
2023-02-01T13:13:06.803Z,9.39
2023-02-01T13:15:33.054Z,9.09
2023-02-01T13:17:59.318Z,9.02
2023-02-01T13:20:26.110Z,9.04
2023-02-01T13:22:52.524Z,9.15
2023-02-01T13:25:18.790Z,9.00
2023-02-01T13:27:45.061Z,9.00
2023-02-01T13:30:11.453Z,8.62
2023-02-01T13:33:50.227Z,8.44
2023-02-01T13:35:24.365Z,8.36
2023-02-01T13:37:50.901Z,8.20
2023-02-01T13:40:17.179Z,8.26
2023-02-01T13:42:43.473Z,7.94
2023-02-01T13:45:09.753Z,8.23
2023-02-01T13:47:36.044Z,8.02
2023-02-01T13:50:02.310Z,7.47
2023-02-01T13:52:28.563Z,7.06
2023-02-01T13:54:54.832Z,7.17
2023-02-01T13:57:21.083Z,7.87
2023-02-01T13:59:47.373Z,7.76
2023-02-01T14:02:13.629Z,7.22
2023-02-01T14:04:39.947Z,7.39
2023-02-01T14:07:06.222Z,7.41
2023-02-01T14:09:32.510Z,7.56
2023-02-01T14:11:59.028Z,7.67
2023-02-01T14:14:25.340Z,7.33
2023-02-01T14:16:51.607Z,7.62
2023-02-01T14:19:17.846Z,7.60
2023-02-01T14:21:44.157Z,7.57
2023-02-01T14:24:10.428Z,8.01
2023-02-01T14:26:36.732Z,7.72
2023-02-01T14:29:03.045Z,7.34
2023-02-01T14:31:29.467Z,7.84
2023-02-01T14:33:55.799Z,8.08
2023-02-01T14:36:22.045Z,7.32
2023-02-01T14:38:48.340Z,7.29
2023-02-01T14:41:14.717Z,7.47
2023-02-01T14:43:41.007Z,7.26
2023-02-01T14:46:07.323Z,7.04
2023-02-01T14:48:34.038Z,6.92
2023-02-01T14:51:00.332Z,7.01
2023-02-01T14:53:26.611Z,6.83
2023-02-01T14:55:52.868Z,7.02
2023-02-01T14:58:19.170Z,6.98
2023-02-01T15:00:45.450Z,6.67
2023-02-01T15:03:11.729Z,6.63
2023-02-01T15:05:38.022Z,6.60
2023-02-01T15:08:04.295Z,6.44
2023-02-01T15:10:30.561Z,6.39
2023-02-01T15:12:56.848Z,6.22
2023-02-01T15:15:23.431Z,6.09
2023-02-01T15:17:49.874Z,6.25
2023-02-01T15:20:16.163Z,6.47
2023-02-01T15:22:43.466Z,6.84
2023-02-01T15:25:09.707Z,6.87
2023-02-01T15:27:35.966Z,6.50
2023-02-01T15:30:02.223Z,5.97
2023-02-01T15:32:28.491Z,6.24
2023-02-01T15:34:54.734Z,6.43
2023-02-01T15:37:21.069Z,6.23
2023-02-01T15:39:47.345Z,6.24
2023-02-01T15:42:13.613Z,6.04
2023-02-01T15:44:39.867Z,5.87
2023-02-01T15:47:06.135Z,5.80
2023-02-01T15:49:32.425Z,5.98
2023-02-01T15:51:58.687Z,5.90
2023-02-01T15:54:24.971Z,5.44
2023-02-01T15:56:51.305Z,6.03
2023-02-01T15:59:17.569Z,5.77
2023-02-01T16:01:43.892Z,5.53
2023-02-01T16:04:10.208Z,5.55
2023-02-01T16:06:36.473Z,5.86
2023-02-01T16:09:02.851Z,5.76
2023-02-01T16:11:29.184Z,6.08
2023-02-01T16:13:55.466Z,5.93
2023-02-01T16:16:21.774Z,5.61
2023-02-01T16:18:48.066Z,5.57
2023-02-01T16:21:14.331Z,5.89
2023-02-01T16:23:40.604Z,5.71
2023-02-01T16:26:06.892Z,5.55
2023-02-01T16:28:33.179Z,5.32
2023-02-01T16:30:59.444Z,5.02
2023-02-01T16:33:25.704Z,5.34
2023-02-01T16:35:51.951Z,4.92
2023-02-01T16:38:18.213Z,5.32
2023-02-01T16:40:44.512Z,5.20
2023-02-01T16:43:10.772Z,5.02
2023-02-01T16:45:37.084Z,4.72
2023-02-01T16:48:03.478Z,4.68
2023-02-01T16:50:29.736Z,4.81
2023-02-01T16:52:56.015Z,5.06
2023-02-01T16:55:22.562Z,4.60
2023-02-01T16:57:49.169Z,4.78
2023-02-01T17:00:23.994Z,4.69
2023-02-01T17:02:51.486Z,4.71
2023-02-01T17:05:17.794Z,4.44
2023-02-01T17:07:44.075Z,4.71
2023-02-01T17:10:10.353Z,4.60
2023-02-01T17:12:36.625Z,4.75
2023-02-01T17:15:02.895Z,4.59
2023-02-01T17:17:38.463Z,4.57
2023-02-01T17:20:05.589Z,4.33
2023-02-01T17:22:31.895Z,4.46
2023-02-01T17:24:58.204Z,4.29
2023-02-01T17:27:24.489Z,4.04
2023-02-01T17:29:50.741Z,4.03
2023-02-01T17:32:17.047Z,4.09
2023-02-01T17:34:43.345Z,4.15
2023-02-01T17:37:10.938Z,4.16
2023-02-01T17:39:37.855Z,4.14
2023-02-01T17:42:04.131Z,4.10
2023-02-01T17:44:30.389Z,3.88
2023-02-01T17:46:56.775Z,3.80
2023-02-01T17:49:23.038Z,3.88
2023-02-01T17:51:49.294Z,3.91
2023-02-01T17:54:15.565Z,3.65
2023-02-01T17:56:41.832Z,3.86
2023-02-01T17:59:08.110Z,4.12
2023-02-01T18:01:34.448Z,4.27
2023-02-01T18:04:00.734Z,4.21
2023-02-01T18:06:26.992Z,3.76
2023-02-01T18:08:53.281Z,3.87
2023-02-01T18:11:19.567Z,3.78
2023-02-01T18:13:45.845Z,3.76
2023-02-01T18:16:12.128Z,3.69
2023-02-01T18:18:39.080Z,3.46
2023-02-01T18:21:05.363Z,3.54
2023-02-01T18:23:31.614Z,3.52
2023-02-01T18:25:57.865Z,3.79
2023-02-01T18:28:24.129Z,3.65
2023-02-01T18:30:50.439Z,3.74
2023-02-01T18:33:16.728Z,3.71
2023-02-01T18:35:42.988Z,3.82
2023-02-01T18:38:09.252Z,3.86
2023-02-01T18:40:35.510Z,3.67
2023-02-01T18:43:01.772Z,3.57
2023-02-01T18:45:28.043Z,3.71
2023-02-01T18:47:54.311Z,3.65
2023-02-01T18:50:20.579Z,3.59
2023-02-01T18:52:46.945Z,3.79
2023-02-01T18:55:13.203Z,3.90
2023-02-01T18:57:39.463Z,3.70
2023-02-01T19:00:05.746Z,3.56
2023-02-01T19:02:32.075Z,3.52
2023-02-01T19:04:58.328Z,3.75
2023-02-01T19:07:25.606Z,3.84
2023-02-01T19:09:51.848Z,3.38
2023-02-01T19:12:18.125Z,3.65
2023-02-01T19:14:44.400Z,3.51
2023-02-01T19:17:10.658Z,3.59
2023-02-01T19:19:36.917Z,3.78
2023-02-01T19:22:03.221Z,3.72
2023-02-01T19:24:29.471Z,3.61
2023-02-01T19:26:55.783Z,3.67
2023-02-01T19:29:22.069Z,3.75
2023-02-01T19:31:48.348Z,3.69
2023-02-01T19:34:14.610Z,3.68
2023-02-01T19:36:42.649Z,3.45
2023-02-01T19:39:09.039Z,3.59
2023-02-01T19:41:35.297Z,3.74
2023-02-01T19:44:01.654Z,3.88
2023-02-01T19:46:27.960Z,3.71
2023-02-01T19:48:54.238Z,3.51
2023-02-01T19:51:20.505Z,3.55
2023-02-01T19:53:46.827Z,3.53
2023-02-01T19:56:13.218Z,3.47
2023-02-01T19:58:39.491Z,3.44
2023-02-01T20:01:04.856Z,3.67
2023-02-01T20:03:31.125Z,3.41
2023-02-01T20:05:57.391Z,3.28
2023-02-01T20:08:23.683Z,3.23
2023-02-01T20:10:49.954Z,3.51
2023-02-01T20:13:16.229Z,3.05
2023-02-01T20:15:42.525Z,3.34
2023-02-01T20:18:08.784Z,3.22
2023-02-01T20:20:35.041Z,3.18
2023-02-01T20:23:01.292Z,3.10
2023-02-01T20:25:27.555Z,3.14
2023-02-01T20:27:54.690Z,3.01
2023-02-01T20:30:21.012Z,3.23
2023-02-01T20:32:48.777Z,2.81
2023-02-01T20:35:15.067Z,2.91
2023-02-01T20:37:41.312Z,2.83
2023-02-01T20:40:07.589Z,3.21
2023-02-01T20:42:33.870Z,2.86
2023-02-01T20:45:00.115Z,2.74
2023-02-01T20:47:26.368Z,2.89
2023-02-01T20:49:52.615Z,2.85
2023-02-01T20:52:18.874Z,2.78
2023-02-01T20:54:45.153Z,2.69
2023-02-01T20:57:11.410Z,2.81
2023-02-01T20:59:37.675Z,2.76
2023-02-01T21:02:03.974Z,2.89
2023-02-01T21:04:30.244Z,2.64
2023-02-01T21:06:56.498Z,2.76
2023-02-01T21:09:22.772Z,2.45
2023-02-01T21:11:49.120Z,2.51
2023-02-01T21:14:15.401Z,2.50
2023-02-01T21:16:41.816Z,2.73
2023-02-01T21:19:08.124Z,2.55
2023-02-01T21:21:34.369Z,2.56
2023-02-01T21:24:00.659Z,2.52
2023-02-01T21:26:27.003Z,2.69
2023-02-01T21:28:53.323Z,2.58
2023-02-01T21:31:19.633Z,2.53
2023-02-01T21:33:45.914Z,2.56
2023-02-01T21:36:12.180Z,2.65
2023-02-01T21:38:38.437Z,2.56
2023-02-01T21:41:04.692Z,2.47
2023-02-01T21:43:30.968Z,2.32
2023-02-01T21:45:57.228Z,2.52
2023-02-01T21:48:23.540Z,2.55
2023-02-01T21:50:49.813Z,2.41
2023-02-01T21:53:16.060Z,2.62
2023-02-01T21:55:42.306Z,2.56
2023-02-01T21:58:08.550Z,2.42
2023-02-01T22:00:34.806Z,2.50
2023-02-01T22:03:01.115Z,2.40
2023-02-01T22:05:27.494Z,2.39
2023-02-01T22:07:53.731Z,2.53
2023-02-01T22:10:19.988Z,2.37
2023-02-01T22:12:46.269Z,2.39
2023-02-01T22:15:12.513Z,2.49
2023-02-01T22:17:38.788Z,2.43
2023-02-01T22:20:05.054Z,2.41
2023-02-01T22:22:31.327Z,2.42
2023-02-01T22:24:57.596Z,2.33
2023-02-01T22:27:30.474Z,2.55
2023-02-01T22:30:10.099Z,2.27
2023-02-01T22:32:36.360Z,2.28
2023-02-01T22:35:02.623Z,2.28
2023-02-01T22:37:28.894Z,2.19
2023-02-01T22:39:55.160Z,2.15
2023-02-01T22:42:21.425Z,2.08
2023-02-01T22:44:47.675Z,2.51
2023-02-01T22:47:13.929Z,2.23
2023-02-01T22:49:40.198Z,2.08
2023-02-01T22:52:06.465Z,2.20
2023-02-01T22:54:32.710Z,2.22
2023-02-01T22:56:58.992Z,2.13
2023-02-01T22:59:25.237Z,2.06
2023-02-01T23:01:51.479Z,2.17
2023-02-01T23:04:17.712Z,1.99
2023-02-01T23:06:44.000Z,2.10
2023-02-01T23:09:10.248Z,1.88
2023-02-01T23:11:36.502Z,1.92
2023-02-01T23:14:02.752Z,1.91
2023-02-01T23:16:28.992Z,1.86
2023-02-01T23:18:55.249Z,2.15
2023-02-01T23:21:21.522Z,2.08
2023-02-01T23:23:47.801Z,1.93
2023-02-01T23:26:14.072Z,1.79
2023-02-01T23:28:40.334Z,2.04
2023-02-01T23:31:06.755Z,1.90
2023-02-01T23:33:33.100Z,1.93
2023-02-01T23:35:59.376Z,2.00
2023-02-01T23:38:25.640Z,2.04
2023-02-01T23:40:51.889Z,1.77
2023-02-01T23:43:18.141Z,1.85
2023-02-01T23:45:44.410Z,1.83
2023-02-01T23:48:10.661Z,1.77
2023-02-01T23:50:36.996Z,1.85
2023-02-01T23:53:03.289Z,1.98
2023-02-01T23:55:29.539Z,1.78
2023-02-01T23:57:55.808Z,1.73
